createdAt,value
2018-10-05T00:00:34.870Z,997.99
2018-10-05T00:01:34.857Z,997.98
2018-10-05T00:02:34.847Z,998.02
2018-10-05T00:03:34.850Z,998.02
2018-10-05T00:04:34.824Z,998.06
2018-10-05T00:05:34.826Z,998.05
2018-10-05T00:06:34.829Z,998.02
2018-10-05T00:07:34.798Z,998.02
2018-10-05T00:08:34.799Z,998.00
2018-10-05T00:09:34.775Z,998.01
2018-10-05T00:10:34.761Z,997.99
2018-10-05T00:11:34.752Z,997.99
2018-10-05T00:12:34.823Z,997.99
2018-10-05T00:13:34.744Z,998.00
2018-10-05T00:14:34.720Z,998.03
2018-10-05T00:15:34.709Z,997.98
2018-10-05T00:16:34.697Z,997.99
2018-10-05T00:17:34.692Z,997.97
2018-10-05T00:18:34.712Z,997.97
2018-10-05T00:19:34.666Z,997.96
2018-10-05T00:20:34.728Z,997.90
2018-10-05T00:21:34.645Z,997.89
2018-10-05T00:22:34.636Z,997.89
2018-10-05T00:23:34.623Z,997.84
2018-10-05T00:24:34.650Z,997.81
2018-10-05T00:25:34.603Z,997.81
2018-10-05T00:26:34.593Z,997.82
2018-10-05T00:27:34.581Z,997.79
2018-10-05T00:28:34.567Z,997.72
2018-10-05T00:29:34.572Z,997.78
2018-10-05T00:30:34.558Z,997.69
2018-10-05T00:31:34.541Z,997.67
2018-10-05T00:32:34.600Z,997.69
2018-10-05T00:33:34.526Z,997.65
2018-10-05T00:34:34.521Z,997.59
2018-10-05T00:35:34.494Z,997.58
2018-10-05T00:36:34.497Z,997.57
2018-10-05T00:37:34.474Z,997.51
2018-10-05T00:38:34.474Z,997.52
2018-10-05T00:39:34.468Z,997.49
2018-10-05T00:40:34.440Z,997.46
2018-10-05T00:41:34.429Z,997.43
2018-10-05T00:42:34.439Z,997.42
2018-10-05T00:43:34.409Z,997.39
2018-10-05T00:44:34.411Z,997.39
2018-10-05T00:45:34.409Z,997.41
2018-10-05T00:46:34.377Z,997.37
2018-10-05T00:47:34.366Z,997.34
2018-10-05T00:48:34.381Z,997.35
2018-10-05T00:49:34.357Z,997.39
2018-10-05T00:50:34.334Z,997.41
2018-10-05T00:51:34.348Z,997.40
2018-10-05T00:52:34.313Z,997.37
2018-10-05T00:53:34.406Z,997.38
2018-10-05T00:54:34.323Z,997.36
2018-10-05T00:55:34.284Z,997.36
2018-10-05T00:56:34.270Z,997.34
2018-10-05T00:57:34.262Z,997.40
2018-10-05T00:58:34.248Z,997.41
2018-10-05T00:59:34.255Z,997.43
2018-10-05T01:00:34.256Z,997.41
2018-10-05T01:01:34.252Z,997.40
2018-10-05T01:02:34.207Z,997.47
2018-10-05T01:03:34.198Z,997.45
2018-10-05T01:04:34.197Z,997.40
2018-10-05T01:05:34.177Z,997.40
2018-10-05T01:06:34.177Z,997.37
2018-10-05T01:07:34.154Z,997.43
2018-10-05T01:08:34.141Z,997.40
2018-10-05T01:09:34.149Z,997.41
2018-10-05T01:10:34.119Z,997.36
2018-10-05T01:11:34.272Z,997.37
2018-10-05T01:12:34.116Z,997.40
2018-10-05T01:13:34.089Z,997.37
2018-10-05T01:14:34.093Z,997.34
2018-10-05T01:15:34.069Z,997.33
2018-10-05T01:16:34.057Z,997.35
2018-10-05T01:17:34.047Z,997.34
2018-10-05T01:18:34.050Z,997.35
2018-10-05T01:19:34.038Z,997.31
2018-10-05T01:20:34.012Z,997.35
2018-10-05T01:21:34.003Z,997.35
2018-10-05T01:22:33.992Z,997.32
2018-10-05T01:23:33.983Z,997.33
2018-10-05T01:24:34.002Z,997.32
2018-10-05T01:25:33.961Z,997.26
2018-10-05T01:26:33.949Z,997.28
2018-10-05T01:27:33.939Z,997.27
2018-10-05T01:28:33.928Z,997.22
2018-10-05T01:29:33.932Z,997.28
2018-10-05T01:30:33.929Z,997.23
2018-10-05T01:31:33.896Z,997.24
2018-10-05T01:32:33.883Z,997.27
2018-10-05T01:33:33.873Z,997.20
2018-10-05T01:34:33.878Z,997.18
2018-10-05T01:35:33.852Z,997.21
2018-10-05T01:36:33.862Z,997.15
2018-10-05T01:37:33.830Z,997.19
2018-10-05T01:38:33.820Z,997.19
2018-10-05T01:39:33.829Z,997.24
2018-10-05T01:40:33.801Z,997.20
2018-10-05T01:41:33.790Z,997.25
2018-10-05T01:42:33.796Z,997.20
2018-10-05T01:43:33.766Z,997.18
2018-10-05T01:44:33.771Z,997.18
2018-10-05T01:45:33.752Z,997.23
2018-10-05T01:46:33.735Z,997.23
2018-10-05T01:47:33.725Z,997.14
2018-10-05T01:48:33.728Z,997.14
2018-10-05T01:49:33.715Z,997.12
2018-10-05T01:50:33.693Z,997.12
2018-10-05T01:51:33.684Z,997.16
2018-10-05T01:52:33.677Z,997.10
2018-10-05T01:53:33.659Z,997.14
2018-10-05T01:54:33.675Z,997.12
2018-10-05T01:55:33.654Z,997.09
2018-10-05T01:56:33.630Z,997.14
2018-10-05T01:57:33.616Z,997.12
2018-10-05T01:58:33.607Z,997.14
2018-10-05T01:59:33.626Z,997.16
2018-10-05T02:00:33.587Z,997.17
2018-10-05T02:01:33.591Z,997.13
2018-10-05T02:02:33.611Z,997.07
2018-10-05T02:03:33.595Z,997.06
2018-10-05T02:04:33.542Z,997.02
2018-10-05T02:05:33.545Z,997.03
2018-10-05T02:06:33.521Z,997.05
2018-10-05T02:07:33.525Z,997.02
2018-10-05T02:08:33.499Z,997.07
2018-10-05T02:09:33.490Z,997.02
2018-10-05T02:10:33.493Z,997.07
2018-10-05T02:11:33.468Z,997.05
2018-10-05T02:12:33.494Z,997.01
2018-10-05T02:13:33.446Z,997.02
2018-10-05T02:14:33.436Z,997.06
2018-10-05T02:15:33.439Z,997.02
2018-10-05T02:16:33.416Z,997.05
2018-10-05T02:17:33.405Z,997.01
2018-10-05T02:18:33.414Z,997.05
2018-10-05T02:19:33.381Z,997.03
2018-10-05T02:20:33.385Z,997.02
2018-10-05T02:21:33.363Z,997.00
2018-10-05T02:22:33.371Z,997.01
2018-10-05T02:23:33.341Z,996.98
2018-10-05T02:24:33.340Z,997.00
2018-10-05T02:25:33.356Z,997.02
2018-10-05T02:26:33.309Z,996.95
2018-10-05T02:27:33.353Z,996.91
2018-10-05T02:28:33.287Z,996.94
2018-10-05T02:29:33.276Z,996.92
2018-10-05T02:30:33.282Z,996.87
2018-10-05T02:31:33.270Z,996.88
2018-10-05T02:32:33.266Z,996.83
2018-10-05T02:33:33.238Z,996.85
2018-10-05T02:34:33.228Z,996.87
2018-10-05T02:35:33.227Z,996.82
2018-10-05T02:36:33.203Z,996.83
2018-10-05T02:37:33.221Z,996.84
2018-10-05T02:38:33.184Z,996.79
2018-10-05T02:39:33.177Z,996.78
2018-10-05T02:40:33.176Z,996.79
2018-10-05T02:41:33.193Z,996.76
2018-10-05T02:42:33.141Z,996.78
2018-10-05T02:43:33.148Z,996.81
2018-10-05T02:44:33.118Z,996.86
2018-10-05T02:45:33.122Z,996.85
2018-10-05T02:46:33.099Z,996.85
2018-10-05T02:47:33.087Z,996.83
2018-10-05T02:48:33.079Z,996.82
2018-10-05T02:49:33.090Z,996.84
2018-10-05T02:50:33.069Z,996.90
2018-10-05T02:51:33.045Z,996.90
2018-10-05T02:52:33.034Z,996.88
2018-10-05T02:53:33.029Z,996.83
2018-10-05T02:54:33.013Z,996.80
2018-10-05T02:55:33.038Z,996.84
2018-10-05T02:56:32.993Z,996.80
2018-10-05T02:57:32.981Z,996.82
2018-10-05T02:58:32.979Z,996.83
2018-10-05T02:59:32.964Z,996.81
2018-10-05T03:00:32.967Z,996.77
2018-10-05T03:01:32.953Z,996.70
2018-10-05T03:02:32.928Z,996.70
2018-10-05T03:03:32.916Z,996.66
2018-10-05T03:04:32.909Z,996.64
2018-10-05T03:05:32.920Z,996.60
2018-10-05T03:06:32.885Z,996.62
2018-10-05T03:07:32.905Z,996.60
2018-10-05T03:08:32.864Z,996.64
2018-10-05T03:09:32.854Z,996.63
2018-10-05T03:10:32.845Z,996.65
2018-10-05T03:11:32.846Z,996.61
2018-10-05T03:12:32.822Z,996.61
2018-10-05T03:13:32.826Z,996.61
2018-10-05T03:14:32.805Z,996.61
2018-10-05T03:15:32.788Z,996.59
2018-10-05T03:16:32.791Z,996.60
2018-10-05T03:17:32.767Z,996.58
2018-10-05T03:18:32.755Z,996.60
2018-10-05T03:19:32.761Z,996.54
2018-10-05T03:20:32.741Z,996.54
2018-10-05T03:21:32.739Z,996.56
2018-10-05T03:22:32.715Z,996.53
2018-10-05T03:23:32.702Z,996.54
2018-10-05T03:24:32.694Z,996.56
2018-10-05T03:25:32.704Z,996.55
2018-10-05T03:26:32.688Z,996.51
2018-10-05T03:27:32.661Z,996.58
2018-10-05T03:28:32.649Z,996.59
2018-10-05T03:29:32.638Z,996.56
2018-10-05T03:30:32.635Z,996.59
2018-10-05T03:31:32.652Z,996.65
2018-10-05T03:32:32.607Z,996.60
2018-10-05T03:33:32.599Z,996.63
2018-10-05T03:34:32.586Z,996.62
2018-10-05T03:35:32.573Z,996.60
2018-10-05T03:36:32.579Z,996.59
2018-10-05T03:37:32.580Z,996.57
2018-10-05T03:38:32.542Z,996.64
2018-10-05T03:39:32.530Z,996.64
2018-10-05T03:40:32.522Z,996.62
2018-10-05T03:41:32.524Z,996.58
2018-10-05T03:42:32.500Z,996.58
2018-10-05T03:43:32.499Z,996.56
2018-10-05T03:44:32.477Z,996.59
2018-10-05T03:45:32.466Z,996.56
2018-10-05T03:46:32.473Z,996.59
2018-10-05T03:47:32.446Z,996.57
2018-10-05T03:48:32.434Z,996.58
2018-10-05T03:49:32.455Z,996.58
2018-10-05T03:50:32.423Z,996.56
2018-10-05T03:51:32.419Z,996.59
2018-10-05T03:52:32.393Z,996.61
2018-10-05T03:53:32.382Z,996.61
2018-10-05T03:54:32.370Z,996.66
2018-10-05T03:55:32.390Z,996.69
2018-10-05T03:56:32.381Z,996.65
2018-10-05T03:57:32.338Z,996.62
2018-10-05T03:58:32.328Z,996.63
2018-10-05T03:59:32.322Z,996.64
2018-10-05T04:00:32.343Z,996.62
2018-10-05T04:01:32.320Z,996.66
2018-10-05T04:02:32.302Z,996.64
2018-10-05T04:03:32.276Z,996.61
2018-10-05T04:04:32.269Z,996.60
2018-10-05T04:05:32.260Z,996.66
2018-10-05T04:06:32.248Z,996.68
2018-10-05T04:07:32.275Z,996.69
2018-10-05T04:08:32.228Z,996.63
2018-10-05T04:09:32.216Z,996.62
2018-10-05T04:10:32.210Z,996.67
2018-10-05T04:11:32.194Z,996.74
2018-10-05T04:12:32.196Z,996.74
2018-10-05T04:13:32.203Z,996.70
2018-10-05T04:14:32.161Z,996.69
2018-10-05T04:15:32.152Z,996.70
2018-10-05T04:16:32.141Z,996.67
2018-10-05T04:17:32.148Z,996.62
2018-10-05T04:18:32.119Z,996.62
2018-10-05T04:19:32.142Z,996.63
2018-10-05T04:20:32.103Z,996.56
2018-10-05T04:21:32.093Z,996.58
2018-10-05T04:22:32.094Z,996.58
2018-10-05T04:23:32.068Z,996.56
2018-10-05T04:24:32.056Z,996.53
2018-10-05T04:25:32.072Z,996.55
2018-10-05T04:26:32.038Z,996.55
2018-10-05T04:27:32.042Z,996.55
2018-10-05T04:28:32.016Z,996.54
2018-10-05T04:29:32.006Z,996.57
2018-10-05T04:30:31.995Z,996.57
2018-10-05T04:31:32.004Z,996.55
2018-10-05T04:32:32.000Z,996.47
2018-10-05T04:33:31.964Z,996.52
2018-10-05T04:34:31.953Z,996.50
2018-10-05T04:35:32.006Z,996.49
2018-10-05T04:36:31.935Z,996.48
2018-10-05T04:37:31.953Z,996.52
2018-10-05T04:38:31.913Z,996.51
2018-10-05T04:39:31.901Z,996.51
2018-10-05T04:40:31.890Z,996.55
2018-10-05T04:41:31.878Z,996.53
2018-10-05T04:42:31.895Z,996.57
2018-10-05T04:43:31.888Z,996.52
2018-10-05T04:44:31.847Z,996.53
2018-10-05T04:45:31.839Z,996.52
2018-10-05T04:46:31.872Z,996.46
2018-10-05T04:47:31.831Z,996.44
2018-10-05T04:48:31.806Z,996.40
2018-10-05T04:49:31.844Z,996.39
2018-10-05T04:50:31.785Z,996.32
2018-10-05T04:51:31.775Z,996.33
2018-10-05T04:52:31.787Z,996.34
2018-10-05T04:53:31.752Z,996.32
2018-10-05T04:54:31.748Z,996.34
2018-10-05T04:55:31.760Z,996.28
2018-10-05T04:56:31.739Z,996.26
2018-10-05T04:57:31.715Z,996.26
2018-10-05T04:58:31.719Z,996.23
2018-10-05T04:59:31.737Z,996.27
2018-10-05T05:00:31.680Z,996.25
2018-10-05T05:01:31.688Z,996.26
2018-10-05T05:02:31.657Z,996.22
2018-10-05T05:03:31.679Z,996.24
2018-10-05T05:04:31.635Z,996.28
2018-10-05T05:05:31.625Z,996.27
2018-10-05T05:06:31.615Z,996.22
2018-10-05T05:07:31.632Z,996.24
2018-10-05T05:08:31.607Z,996.20
2018-10-05T05:09:31.582Z,996.23
2018-10-05T05:10:31.573Z,996.22
2018-10-05T05:11:31.562Z,996.20
2018-10-05T05:12:31.551Z,996.22
2018-10-05T05:13:31.589Z,996.24
2018-10-05T05:14:31.534Z,996.23
2018-10-05T05:15:31.520Z,996.25
2018-10-05T05:16:31.512Z,996.19
2018-10-05T05:17:31.497Z,996.27
2018-10-05T05:18:31.501Z,996.26
2018-10-05T05:19:31.538Z,996.28
2018-10-05T05:20:31.465Z,996.26
2018-10-05T05:21:31.490Z,996.30
2018-10-05T05:22:31.445Z,996.29
2018-10-05T05:23:31.446Z,996.34
2018-10-05T05:24:31.425Z,996.29
2018-10-05T05:25:31.422Z,996.34
2018-10-05T05:26:31.426Z,996.31
2018-10-05T05:27:31.393Z,996.28
2018-10-05T05:28:31.393Z,996.28
2018-10-05T05:29:31.371Z,996.31
2018-10-05T05:30:31.357Z,996.30
2018-10-05T05:31:31.348Z,996.38
2018-10-05T05:32:31.358Z,996.32
2018-10-05T05:33:31.412Z,996.33
2018-10-05T05:34:31.317Z,996.29
2018-10-05T05:35:31.309Z,996.28
2018-10-05T05:36:31.295Z,996.30
2018-10-05T05:37:31.283Z,996.31
2018-10-05T05:38:31.307Z,996.30
2018-10-05T05:39:31.264Z,996.35
2018-10-05T05:40:31.252Z,996.34
2018-10-05T05:41:31.241Z,996.37
2018-10-05T05:42:31.230Z,996.37
2018-10-05T05:43:31.238Z,996.29
2018-10-05T05:44:31.237Z,996.32
2018-10-05T05:45:31.197Z,996.37
2018-10-05T05:46:31.188Z,996.32
2018-10-05T05:47:31.177Z,996.36
2018-10-05T05:48:31.178Z,996.34
2018-10-05T05:49:31.156Z,996.36
2018-10-05T05:50:31.175Z,996.33
2018-10-05T05:51:31.135Z,996.32
2018-10-05T05:52:31.125Z,996.32
2018-10-05T05:53:31.126Z,996.24
2018-10-05T05:54:31.149Z,996.26
2018-10-05T05:55:31.093Z,996.25
2018-10-05T05:56:31.104Z,996.25
2018-10-05T05:57:31.071Z,996.22
2018-10-05T05:58:31.075Z,996.25
2018-10-05T05:59:31.053Z,996.25
2018-10-05T06:00:31.037Z,996.26
2018-10-05T06:01:31.026Z,996.23
2018-10-05T06:02:31.048Z,996.17
2018-10-05T06:03:31.024Z,996.19
2018-10-05T06:04:30.995Z,996.20
2018-10-05T06:05:30.984Z,996.18
2018-10-05T06:06:30.973Z,996.21
2018-10-05T06:07:30.966Z,996.21
2018-10-05T06:08:30.990Z,996.27
2018-10-05T06:09:30.944Z,996.27
2018-10-05T06:10:30.931Z,996.23
2018-10-05T06:11:30.920Z,996.24
2018-10-05T06:12:30.912Z,996.23
2018-10-05T06:13:30.915Z,996.26
2018-10-05T06:14:30.897Z,996.23
2018-10-05T06:15:30.877Z,996.23
2018-10-05T06:16:30.893Z,996.25
2018-10-05T06:17:30.855Z,996.23
2018-10-05T06:18:30.862Z,996.25
2018-10-05T06:19:30.834Z,996.21
2018-10-05T06:20:30.846Z,996.19
2018-10-05T06:21:30.898Z,996.21
2018-10-05T06:22:30.946Z,996.24
2018-10-05T06:23:30.812Z,996.22
2018-10-05T06:24:30.781Z,996.25
2018-10-05T06:25:30.777Z,996.23
2018-10-05T06:26:30.780Z,996.30
2018-10-05T06:27:30.790Z,996.27
2018-10-05T06:28:30.754Z,996.31
2018-10-05T06:29:30.730Z,996.34
2018-10-05T06:30:30.728Z,996.29
2018-10-05T06:31:30.706Z,996.33
2018-10-05T06:32:30.710Z,996.37
2018-10-05T06:33:30.705Z,996.45
2018-10-05T06:34:30.676Z,996.39
2018-10-05T06:35:30.666Z,996.32
2018-10-05T06:36:30.653Z,996.39
2018-10-05T06:37:30.643Z,996.35
2018-10-05T06:38:30.686Z,996.29
2018-10-05T06:39:30.622Z,996.27
2018-10-05T06:40:30.623Z,996.37
2018-10-05T06:41:30.600Z,996.41
2018-10-05T06:42:30.649Z,996.47
2018-10-05T06:43:30.595Z,996.45
2018-10-05T06:44:30.585Z,996.41
2018-10-05T06:45:30.559Z,996.43
2018-10-05T06:46:30.547Z,996.42
2018-10-05T06:47:30.538Z,996.39
2018-10-05T06:48:30.542Z,996.33
2018-10-05T06:49:30.515Z,996.33
2018-10-05T06:50:30.518Z,996.31
2018-10-05T06:51:30.495Z,996.31
2018-10-05T06:52:30.485Z,996.29
2018-10-05T06:53:30.487Z,996.30
2018-10-05T06:54:30.467Z,996.31
2018-10-05T06:55:30.476Z,996.33
2018-10-05T06:56:30.441Z,996.33
2018-10-05T06:57:30.430Z,996.24
2018-10-05T06:58:30.435Z,996.26
2018-10-05T06:59:30.408Z,996.29
2018-10-05T07:00:30.397Z,996.25
2018-10-05T07:01:30.464Z,996.23
2018-10-05T07:02:30.376Z,996.28
2018-10-05T07:03:30.377Z,996.26
2018-10-05T07:04:30.358Z,996.27
2018-10-05T07:05:30.343Z,996.31
2018-10-05T07:06:30.332Z,996.32
2018-10-05T07:07:30.358Z,996.30
2018-10-05T07:08:30.325Z,996.29
2018-10-05T07:09:30.301Z,996.33
2018-10-05T07:10:30.289Z,996.31
2018-10-05T07:11:30.318Z,996.26
2018-10-05T07:12:30.268Z,996.27
2018-10-05T07:13:30.292Z,996.29
2018-10-05T07:14:30.247Z,996.30
2018-10-05T07:15:30.242Z,996.32
2018-10-05T07:16:30.228Z,996.31
2018-10-05T07:17:30.214Z,996.32
2018-10-05T07:18:30.217Z,996.30
2018-10-05T07:19:30.207Z,996.35
2018-10-05T07:20:30.196Z,996.34
2018-10-05T07:21:30.259Z,996.36
2018-10-05T07:22:30.249Z,996.36
2018-10-05T07:23:30.172Z,996.36
2018-10-05T07:24:30.150Z,996.38
2018-10-05T07:25:30.145Z,996.36
2018-10-05T07:26:30.121Z,996.35
2018-10-05T07:27:30.153Z,996.37
2018-10-05T07:28:30.268Z,996.31
2018-10-05T07:29:30.092Z,996.37
2018-10-05T07:30:30.092Z,996.29
2018-10-05T07:31:30.066Z,996.30
2018-10-05T07:32:30.074Z,996.28
2018-10-05T07:33:30.058Z,996.32
2018-10-05T07:34:30.031Z,996.30
2018-10-05T07:35:30.034Z,996.28
2018-10-05T07:36:30.029Z,996.25
2018-10-05T07:37:30.089Z,996.32
2018-10-05T07:38:30.011Z,996.31
2018-10-05T07:39:29.978Z,996.34
2018-10-05T07:40:29.968Z,996.33
2018-10-05T07:41:29.976Z,996.31
2018-10-05T07:42:29.949Z,996.31
2018-10-05T07:43:29.951Z,996.28
2018-10-05T07:44:29.927Z,996.27
2018-10-05T07:45:29.912Z,996.33
2018-10-05T07:46:29.906Z,996.27
2018-10-05T07:47:29.899Z,996.27
2018-10-05T07:48:29.915Z,996.32
2018-10-05T07:49:29.891Z,996.32
2018-10-05T07:50:29.860Z,996.26
2018-10-05T07:51:29.850Z,996.26
2018-10-05T07:52:29.838Z,996.24
2018-10-05T07:53:29.827Z,996.25
2018-10-05T07:54:29.832Z,996.24
2018-10-05T07:55:29.815Z,996.25
2018-10-05T07:56:29.816Z,996.17
2018-10-05T07:57:29.884Z,996.23
2018-10-05T07:58:29.790Z,996.24
2018-10-05T07:59:29.817Z,996.16
2018-10-05T08:00:29.765Z,996.16
2018-10-05T08:01:29.755Z,996.11
2018-10-05T08:02:29.740Z,996.18
2018-10-05T08:03:29.735Z,996.19
2018-10-05T08:04:29.722Z,996.19
2018-10-05T08:05:29.704Z,996.23
2018-10-05T08:06:29.705Z,996.23
2018-10-05T08:07:29.686Z,996.18
2018-10-05T08:08:29.679Z,996.24
2018-10-05T08:09:29.711Z,996.27
2018-10-05T08:10:29.647Z,996.29
2018-10-05T08:11:29.635Z,996.33
2018-10-05T08:12:29.629Z,996.23
2018-10-05T08:13:29.628Z,996.20
2018-10-05T08:14:29.638Z,996.17
2018-10-05T08:15:29.613Z,996.20
2018-10-05T08:16:29.585Z,996.17
2018-10-05T08:17:29.592Z,996.17
2018-10-05T08:18:29.563Z,996.17
2018-10-05T08:19:29.603Z,996.19
2018-10-05T08:20:29.583Z,996.19
2018-10-05T08:21:29.604Z,996.18
2018-10-05T08:22:29.543Z,996.15
2018-10-05T08:23:29.512Z,996.10
2018-10-05T08:24:29.513Z,996.15
2018-10-05T08:25:29.503Z,996.11
2018-10-05T08:26:29.522Z,996.12
2018-10-05T08:27:29.468Z,996.16
2018-10-05T08:28:29.467Z,996.10
2018-10-05T08:29:29.481Z,996.08
2018-10-05T08:30:29.454Z,996.09
2018-10-05T08:31:29.434Z,996.08
2018-10-05T08:32:29.422Z,996.13
2018-10-05T08:33:29.402Z,996.07
2018-10-05T08:34:29.444Z,996.09
2018-10-05T08:35:29.395Z,996.01
2018-10-05T08:36:29.363Z,996.00
2018-10-05T08:37:29.372Z,996.02
2018-10-05T08:38:29.369Z,996.01
2018-10-05T08:39:29.360Z,995.98
2018-10-05T08:40:29.342Z,995.98
2018-10-05T08:41:29.333Z,995.92
2018-10-05T08:42:29.329Z,995.95
2018-10-05T08:43:29.292Z,995.91
2018-10-05T08:44:29.304Z,995.92
2018-10-05T08:45:29.309Z,995.88
2018-10-05T08:46:29.259Z,995.85
2018-10-05T08:47:29.268Z,995.86
2018-10-05T08:48:29.238Z,995.83
2018-10-05T08:49:29.272Z,995.80
2018-10-05T08:50:29.218Z,995.83
2018-10-05T08:51:29.255Z,995.79
2018-10-05T08:52:29.207Z,995.74
2018-10-05T08:53:29.188Z,995.76
2018-10-05T08:54:29.188Z,995.77
2018-10-05T08:55:29.159Z,995.75
2018-10-05T08:56:29.165Z,995.74
2018-10-05T08:57:29.137Z,995.74
2018-10-05T08:58:29.145Z,995.78
2018-10-05T08:59:29.142Z,995.78
2018-10-05T09:00:29.172Z,995.75
2018-10-05T09:01:29.103Z,995.76
2018-10-05T09:02:29.086Z,995.75
2018-10-05T09:03:29.077Z,995.64
2018-10-05T09:04:29.081Z,995.65
2018-10-05T09:05:29.060Z,995.66
2018-10-05T09:06:29.043Z,995.67
2018-10-05T09:07:29.029Z,995.58
2018-10-05T09:08:29.024Z,995.60
2018-10-05T09:09:29.036Z,995.62
2018-10-05T09:10:29.022Z,995.55
2018-10-05T09:11:28.999Z,995.61
2018-10-05T09:12:28.990Z,995.58
2018-10-05T09:13:28.968Z,995.57
2018-10-05T09:14:28.975Z,995.64
2018-10-05T09:15:28.969Z,995.58
2018-10-05T09:16:28.954Z,995.53
2018-10-05T09:17:28.937Z,995.55
2018-10-05T09:18:28.922Z,995.53
2018-10-05T09:19:28.927Z,995.45
2018-10-05T09:20:28.901Z,995.46
2018-10-05T09:21:28.889Z,995.48
2018-10-05T09:22:28.936Z,995.48
2018-10-05T09:23:28.881Z,995.45
2018-10-05T09:24:28.870Z,995.40
2018-10-05T09:25:28.844Z,995.40
2018-10-05T09:26:28.829Z,995.36
2018-10-05T09:27:28.834Z,995.38
2018-10-05T09:28:28.812Z,995.39
2018-10-05T09:29:28.824Z,995.34
2018-10-05T09:30:28.815Z,995.33
2018-10-05T09:31:28.780Z,995.27
2018-10-05T09:32:28.791Z,995.24
2018-10-05T09:33:28.761Z,995.23
2018-10-05T09:34:28.765Z,995.21
2018-10-05T09:35:28.748Z,995.22
2018-10-05T09:36:28.736Z,995.17
2018-10-05T09:37:28.742Z,995.16
2018-10-05T09:38:28.715Z,995.18
2018-10-05T09:39:29.437Z,995.15
2018-10-05T09:40:28.719Z,995.21
2018-10-05T09:41:29.293Z,995.14
2018-10-05T09:42:28.662Z,995.13
2018-10-05T09:43:28.650Z,995.13
2018-10-05T09:44:28.657Z,995.13
2018-10-05T09:45:28.635Z,995.12
2018-10-05T09:46:28.617Z,995.10
2018-10-05T09:47:28.603Z,995.13
2018-10-05T09:48:28.599Z,995.18
2018-10-05T09:49:28.596Z,995.15
2018-10-05T09:50:28.570Z,995.09
2018-10-05T09:51:28.565Z,995.07
2018-10-05T09:52:28.659Z,995.07
2018-10-05T09:53:28.543Z,995.06
2018-10-05T09:54:28.544Z,995.01
2018-10-05T09:55:28.517Z,994.96
2018-10-05T09:56:28.508Z,994.99
2018-10-05T09:57:28.503Z,995.00
2018-10-05T09:58:28.488Z,995.00
2018-10-05T09:59:28.493Z,994.98
2018-10-05T10:00:28.471Z,994.96
2018-10-05T10:01:28.461Z,994.96
2018-10-05T10:02:28.449Z,994.92
2018-10-05T10:03:28.491Z,994.88
2018-10-05T10:04:28.466Z,994.86
2018-10-05T10:05:28.442Z,994.87
2018-10-05T10:06:28.409Z,994.79
2018-10-05T10:07:28.398Z,994.80
2018-10-05T10:08:28.491Z,994.79
2018-10-05T10:09:28.394Z,994.76
2018-10-05T10:10:28.361Z,994.85
2018-10-05T10:11:28.355Z,994.75
2018-10-05T10:12:28.342Z,994.80
2018-10-05T10:13:28.339Z,994.72
2018-10-05T10:14:28.351Z,994.69
2018-10-05T10:15:28.308Z,994.71
2018-10-05T10:16:28.300Z,994.71
2018-10-05T10:17:28.289Z,994.74
2018-10-05T10:18:28.276Z,994.71
2018-10-05T10:19:28.283Z,994.63
2018-10-05T10:20:28.259Z,994.69
2018-10-05T10:21:28.255Z,994.68
2018-10-05T10:22:28.294Z,994.69
2018-10-05T10:23:28.228Z,994.63
2018-10-05T10:24:28.237Z,994.62
2018-10-05T10:25:28.219Z,994.72
2018-10-05T10:26:28.200Z,994.64
2018-10-05T10:27:28.236Z,994.59
2018-10-05T10:28:28.224Z,994.64
2018-10-05T10:29:28.211Z,994.52
2018-10-05T10:30:28.174Z,994.51
2018-10-05T10:31:28.148Z,994.50
2018-10-05T10:32:28.143Z,994.45
2018-10-05T10:33:28.138Z,994.48
2018-10-05T10:34:28.182Z,994.45
2018-10-05T10:35:28.112Z,994.44
2018-10-05T10:36:28.098Z,994.41
2018-10-05T10:37:28.136Z,994.39
2018-10-05T10:38:28.073Z,994.40
2018-10-05T10:39:28.081Z,994.39
2018-10-05T10:40:28.052Z,994.41
2018-10-05T10:41:28.044Z,994.36
2018-10-05T10:42:28.067Z,994.35
2018-10-05T10:43:28.024Z,994.33
2018-10-05T10:44:28.027Z,994.33
2018-10-05T10:45:28.005Z,994.35
2018-10-05T10:46:27.996Z,994.33
2018-10-05T10:47:27.979Z,994.34
2018-10-05T10:48:27.978Z,994.36
2018-10-05T10:49:27.989Z,994.28
2018-10-05T10:50:27.949Z,994.33
2018-10-05T10:51:27.939Z,994.30
2018-10-05T10:52:27.928Z,994.28
2018-10-05T10:53:27.921Z,994.31
2018-10-05T10:54:27.928Z,994.30
2018-10-05T10:55:27.895Z,994.23
2018-10-05T10:56:27.890Z,994.28
2018-10-05T10:57:27.884Z,994.26
2018-10-05T10:58:27.887Z,994.24
2018-10-05T10:59:27.883Z,994.18
2018-10-05T11:00:27.860Z,994.16
2018-10-05T11:01:27.834Z,994.15
2018-10-05T11:02:27.825Z,994.21
2018-10-05T11:03:27.822Z,994.18
2018-10-05T11:04:27.856Z,994.09
2018-10-05T11:05:27.794Z,994.08
2018-10-05T11:06:27.785Z,994.01
2018-10-05T11:07:27.783Z,993.97
2018-10-05T11:08:27.763Z,993.96
2018-10-05T11:09:27.768Z,993.93
2018-10-05T11:10:27.736Z,993.89
2018-10-05T11:11:27.736Z,993.90
2018-10-05T11:12:27.727Z,993.88
2018-10-05T11:13:27.709Z,993.91
2018-10-05T11:14:27.713Z,993.92
2018-10-05T11:15:27.695Z,993.83
2018-10-05T11:16:27.681Z,993.88
2018-10-05T11:17:27.683Z,993.83
2018-10-05T11:18:27.654Z,993.84
2018-10-05T11:19:27.659Z,993.82
2018-10-05T11:20:27.641Z,993.74
2018-10-05T11:21:27.624Z,993.68
2018-10-05T11:22:27.618Z,993.66
2018-10-05T11:23:27.606Z,993.64
2018-10-05T11:24:27.605Z,993.53
2018-10-05T11:25:27.587Z,993.51
2018-10-05T11:26:27.582Z,993.47
2018-10-05T11:27:27.562Z,993.41
2018-10-05T11:28:27.553Z,993.39
2018-10-05T11:29:27.573Z,993.40
2018-10-05T11:30:27.541Z,993.38
2018-10-05T11:31:27.527Z,993.41
2018-10-05T11:32:27.514Z,993.41
2018-10-05T11:33:27.502Z,993.43
2018-10-05T11:34:27.500Z,993.43
2018-10-05T11:35:27.477Z,993.39
2018-10-05T11:36:27.465Z,993.41
2018-10-05T11:37:27.453Z,993.34
2018-10-05T11:38:27.439Z,993.32
2018-10-05T11:39:27.448Z,993.27
2018-10-05T11:40:27.429Z,993.27
2018-10-05T11:41:27.414Z,993.26
2018-10-05T11:42:27.399Z,993.25
2018-10-05T11:43:27.386Z,993.26
2018-10-05T11:44:27.399Z,993.18
2018-10-05T11:45:27.375Z,993.22
2018-10-05T11:46:27.424Z,993.17
2018-10-05T11:47:27.357Z,993.14
2018-10-05T11:48:27.336Z,993.18
2018-10-05T11:49:27.343Z,993.25
2018-10-05T11:50:27.316Z,993.27
2018-10-05T11:51:27.306Z,993.29
2018-10-05T11:52:27.339Z,993.33
2018-10-05T11:53:27.683Z,993.27
2018-10-05T11:54:27.395Z,993.27
2018-10-05T11:55:35.310Z,993.24
2018-10-05T11:56:27.249Z,993.16
2018-10-05T11:57:27.240Z,993.14
2018-10-05T11:58:27.231Z,993.11
2018-10-05T11:59:27.257Z,993.11
2018-10-05T12:00:27.256Z,993.10
2018-10-05T12:01:27.262Z,993.13
2018-10-05T12:02:27.293Z,993.11
2018-10-05T12:03:27.194Z,993.08
2018-10-05T12:04:27.199Z,993.06
2018-10-05T12:05:27.174Z,993.04
2018-10-05T12:06:27.166Z,992.96
2018-10-05T12:07:27.164Z,992.96
2018-10-05T12:08:27.122Z,992.93
2018-10-05T12:09:27.109Z,992.87
2018-10-05T12:10:27.112Z,992.91
2018-10-05T12:11:27.879Z,992.85
2018-10-05T12:12:27.075Z,992.86
2018-10-05T12:13:27.074Z,992.88
2018-10-05T12:14:27.082Z,992.82
2018-10-05T12:15:27.064Z,992.87
2018-10-05T12:16:27.038Z,992.85
2018-10-05T12:17:27.091Z,992.82
2018-10-05T12:18:27.060Z,992.85
2018-10-05T12:19:27.010Z,992.76
2018-10-05T12:20:27.048Z,992.75
2018-10-05T12:21:26.988Z,992.76
2018-10-05T12:22:26.971Z,992.70
2018-10-05T12:23:26.963Z,992.71
2018-10-05T12:24:26.950Z,992.72
2018-10-05T12:25:26.952Z,992.68
2018-10-05T12:26:26.953Z,992.71
2018-10-05T12:27:26.917Z,992.64
2018-10-05T12:28:26.911Z,992.64